createdAt,value
2022-12-25T00:02:17.731Z,96449.88
2022-12-25T00:04:45.626Z,96453.69
2022-12-25T00:07:13.378Z,96441.91
2022-12-25T00:09:41.142Z,96444.09
2022-12-25T00:12:10.351Z,96451.06
2022-12-25T00:14:38.105Z,96457.53
2022-12-25T00:17:05.848Z,96454.03
2022-12-25T00:19:33.770Z,96461.34
2022-12-25T00:22:01.467Z,96450.09
2022-12-25T00:24:29.230Z,96456.25
2022-12-25T00:26:56.981Z,96452.53
2022-12-25T00:29:26.543Z,96456.56
2022-12-25T00:31:54.378Z,96446.91
2022-12-25T00:34:22.280Z,96439.94
2022-12-25T00:36:51.279Z,96435.41
2022-12-25T00:39:19.195Z,96443.22
2022-12-25T00:42:04.491Z,96443.53
2022-12-25T00:44:33.678Z,96438.72
2022-12-25T00:47:11.607Z,96439.00
2022-12-25T00:49:39.433Z,96434.44
2022-12-25T00:52:07.540Z,96424.22
2022-12-25T00:54:35.324Z,96429.28
2022-12-25T00:57:03.211Z,96426.63
2022-12-25T00:59:33.815Z,96409.97
2022-12-25T01:02:22.848Z,96418.88
2022-12-25T01:04:51.447Z,96420.31
2022-12-25T01:07:19.945Z,96421.94
2022-12-25T01:10:06.227Z,96424.91
2022-12-25T01:12:36.676Z,96430.03
2022-12-25T01:15:06.852Z,96440.78
2022-12-25T01:17:35.098Z,96433.56
2022-12-25T01:20:03.208Z,96440.63
2022-12-25T01:22:31.025Z,96442.50
2022-12-25T01:24:58.790Z,96448.13
2022-12-25T01:27:26.635Z,96451.91
2022-12-25T01:29:54.942Z,96435.81
2022-12-25T01:32:26.179Z,96442.25
2022-12-25T01:34:56.373Z,96439.56
2022-12-25T01:37:24.976Z,96442.00
2022-12-25T01:39:52.800Z,96437.19
2022-12-25T01:42:23.601Z,96443.59
2022-12-25T01:45:31.668Z,96453.78
2022-12-25T01:48:03.168Z,96446.84
2022-12-25T01:50:31.073Z,96446.84
2022-12-25T01:52:59.454Z,96441.97
2022-12-25T01:55:28.589Z,96444.09
2022-12-25T01:57:56.467Z,96445.19
2022-12-25T02:00:24.350Z,96454.34
2022-12-25T02:02:52.299Z,96451.59
2022-12-25T02:05:26.126Z,96445.66
2022-12-25T02:07:54.751Z,96452.66
2022-12-25T02:10:22.873Z,96442.44
2022-12-25T02:12:51.125Z,96442.94
2022-12-25T02:15:21.947Z,96448.84
2022-12-25T02:17:59.568Z,96443.72
2022-12-25T02:20:52.512Z,96451.47
2022-12-25T02:23:50.443Z,96445.03
2022-12-25T02:26:28.727Z,96455.75
2022-12-25T02:29:03.915Z,96454.13
2022-12-25T02:31:39.795Z,96453.03
2022-12-25T02:34:14.252Z,96450.59
2022-12-25T02:36:46.851Z,96452.97
2022-12-25T02:39:40.995Z,96441.97
2022-12-25T02:42:15.115Z,96442.78
2022-12-25T02:45:05.727Z,96446.56
2022-12-25T02:47:52.717Z,96439.56
2022-12-25T02:50:39.888Z,96450.28
2022-12-25T02:53:27.253Z,96446.25
2022-12-25T02:56:14.680Z,96445.47
2022-12-25T02:59:03.404Z,96433.63
2022-12-25T03:01:52.774Z,96428.25
2022-12-25T03:04:42.664Z,96425.28
2022-12-25T03:07:15.575Z,96425.81
2022-12-25T03:10:05.136Z,96416.66
2022-12-25T03:12:41.673Z,96417.47
2022-12-25T03:15:29.668Z,96413.97
2022-12-25T03:18:02.716Z,96418.00
2022-12-25T03:20:48.895Z,96414.81
2022-12-25T03:23:39.010Z,96413.50
2022-12-25T03:26:25.112Z,96411.16
2022-12-25T03:28:52.826Z,96408.47
2022-12-25T03:31:26.862Z,96410.06
2022-12-25T03:34:45.193Z,96393.94
2022-12-25T03:37:48.051Z,96375.16
2022-12-25T03:40:42.375Z,96381.94
2022-12-25T03:43:33.588Z,96372.00
2022-12-25T03:46:25.941Z,96379.78
2022-12-25T03:49:18.976Z,96384.34
2022-12-25T03:52:07.653Z,96388.13
2022-12-25T03:54:58.274Z,96384.63
2022-12-25T03:57:43.636Z,96395.09
2022-12-25T04:00:29.670Z,96397.22
2022-12-25T04:03:14.896Z,96399.63
2022-12-25T04:06:00.045Z,96395.03
2022-12-25T04:08:46.825Z,96396.63
2022-12-25T04:11:32.155Z,96394.75
2022-12-25T04:14:17.335Z,96393.38
2022-12-25T04:17:02.400Z,96402.25
2022-12-25T04:19:47.537Z,96407.06
2022-12-25T04:22:32.822Z,96399.50
2022-12-25T04:25:19.086Z,96396.59
2022-12-25T04:28:04.460Z,96406.53
2022-12-25T04:30:49.600Z,96397.69
2022-12-25T04:33:34.797Z,96400.59
2022-12-25T04:36:11.584Z,96394.94
2022-12-25T04:38:40.429Z,96392.00
2022-12-25T04:41:12.544Z,96390.34
2022-12-25T04:43:40.480Z,96405.19
2022-12-25T04:46:08.378Z,96400.91
2022-12-25T04:48:37.111Z,96405.69
2022-12-25T04:51:12.733Z,96397.88
2022-12-25T04:53:40.461Z,96403.75
2022-12-25T04:56:08.322Z,96401.88
2022-12-25T04:58:37.564Z,96400.50
2022-12-25T05:01:06.257Z,96403.97
2022-12-25T05:03:34.950Z,96396.72
2022-12-25T05:06:03.355Z,96387.06
2022-12-25T05:08:32.147Z,96400.50
2022-12-25T05:10:59.912Z,96395.41
2022-12-25T05:13:27.775Z,96387.34
2022-12-25T05:15:56.951Z,96393.53
2022-12-25T05:18:24.989Z,96386.25
2022-12-25T05:20:54.407Z,96390.53
2022-12-25T05:23:22.935Z,96384.66
2022-12-25T05:25:50.685Z,96380.09
2022-12-25T05:28:18.497Z,96373.34
2022-12-25T05:30:46.225Z,96375.22
2022-12-25T05:33:15.829Z,96371.75
2022-12-25T05:35:43.582Z,96362.88
2022-12-25T05:38:11.307Z,96359.91
2022-12-25T05:40:40.949Z,96366.66
2022-12-25T05:43:09.189Z,96373.38
2022-12-25T05:45:37.079Z,96370.19
2022-12-25T05:48:05.044Z,96359.47
2022-12-25T05:50:34.203Z,96359.47
2022-12-25T05:53:12.578Z,96361.91
2022-12-25T05:55:43.491Z,96361.91
2022-12-25T05:58:12.768Z,96366.97
2022-12-25T06:00:41.827Z,96366.47
2022-12-25T06:03:09.634Z,96375.03
2022-12-25T06:05:40.193Z,96371.81
2022-12-25T06:08:07.942Z,96374.78
2022-12-25T06:10:35.616Z,96381.06
2022-12-25T06:13:03.727Z,96377.03
2022-12-25T06:15:32.776Z,96364.41
2022-12-25T06:18:01.442Z,96364.41
2022-12-25T06:20:29.365Z,96365.50
2022-12-25T06:22:58.506Z,96366.00
2022-12-25T06:25:26.247Z,96357.94
2022-12-25T06:27:53.988Z,96363.31
2022-12-25T06:30:21.804Z,96368.47
2022-12-25T06:32:49.680Z,96366.59
2022-12-25T06:35:17.561Z,96359.31
2022-12-25T06:37:45.346Z,96363.91
2022-12-25T06:40:15.214Z,96362.31
2022-12-25T06:42:42.968Z,96343.78
2022-12-25T06:45:11.563Z,96340.84
2022-12-25T06:47:39.684Z,96343.09
2022-12-25T06:50:08.523Z,96349.00
2022-12-25T06:52:38.597Z,96346.31
2022-12-25T06:55:08.026Z,96341.50
2022-12-25T06:57:37.178Z,96342.00
2022-12-25T07:00:06.701Z,96334.72
2022-12-25T07:02:38.417Z,96339.59
2022-12-25T07:05:07.120Z,96344.16
2022-12-25T07:07:34.895Z,96344.69
2022-12-25T07:10:02.632Z,96338.75
2022-12-25T07:12:30.376Z,96337.66
2022-12-25T07:14:59.503Z,96332.00
2022-12-25T07:17:27.265Z,96332.00
2022-12-25T07:19:56.554Z,96334.91
2022-12-25T07:22:24.267Z,96333.81
2022-12-25T07:24:52.012Z,96342.41
2022-12-25T07:27:19.772Z,96347.44
2022-12-25T07:29:47.577Z,96336.94
2022-12-25T07:32:16.754Z,96344.44
2022-12-25T07:34:44.540Z,96340.94
2022-12-25T07:37:12.624Z,96339.56
2022-12-25T07:39:40.698Z,96340.34
2022-12-25T07:42:08.657Z,96345.47
2022-12-25T07:44:36.376Z,96343.00
2022-12-25T07:47:04.126Z,96348.59
2022-12-25T07:49:33.213Z,96350.44
2022-12-25T07:52:00.977Z,96340.47
2022-12-25T07:54:28.701Z,96341.50
2022-12-25T07:56:56.463Z,96346.31
2022-12-25T07:59:24.361Z,96341.16
2022-12-25T08:01:52.333Z,96344.59
2022-12-25T08:04:20.393Z,96343.75
2022-12-25T08:06:49.598Z,96347.72
2022-12-25T08:09:17.366Z,96341.25
2022-12-25T08:11:47.708Z,96343.09
2022-12-25T08:14:16.329Z,96346.56
2022-12-25T08:16:44.626Z,96341.44
2022-12-25T08:19:12.590Z,96343.31
2022-12-25T08:21:40.327Z,96344.41
2022-12-25T08:24:10.694Z,96345.44
2022-12-25T08:26:38.561Z,96350.50
2022-12-25T08:29:33.483Z,96354.53
2022-12-25T08:32:01.293Z,96349.94
2022-12-25T08:34:29.065Z,96352.56
2022-12-25T08:36:56.772Z,96351.72
2022-12-25T08:39:25.935Z,96348.16
2022-12-25T08:41:53.651Z,96354.75
2022-12-25T08:44:22.439Z,96336.94
2022-12-25T08:46:50.209Z,96344.16
2022-12-25T08:49:17.959Z,96337.91
2022-12-25T08:51:46.104Z,96337.31
2022-12-25T08:54:13.841Z,96339.94
2022-12-25T08:56:42.987Z,96336.38
2022-12-25T08:59:11.734Z,96337.38
2022-12-25T09:01:39.621Z,96339.22
2022-12-25T09:04:07.435Z,96336.94
2022-12-25T09:06:35.333Z,96345.44
2022-12-25T09:09:03.102Z,96334.59
2022-12-25T09:11:30.906Z,96327.44
2022-12-25T09:14:01.212Z,96335.66
2022-12-25T09:16:30.205Z,96331.19
2022-12-25T09:18:59.178Z,96327.31
2022-12-25T09:21:26.970Z,96316.97
2022-12-25T09:23:56.741Z,96316.88
2022-12-25T09:26:24.497Z,96312.19
2022-12-25T09:28:52.811Z,96318.56
2022-12-25T09:31:34.594Z,96318.50
2022-12-25T09:34:03.432Z,96324.31
2022-12-25T09:36:33.333Z,96327.19
2022-12-25T09:39:01.638Z,96331.59
2022-12-25T09:41:34.603Z,96324.81
2022-12-25T09:44:07.055Z,96321.22
2022-12-25T09:46:41.840Z,96323.34
2022-12-25T09:49:19.543Z,96317.84
2022-12-25T09:51:52.522Z,96308.31
2022-12-25T09:54:24.610Z,96305.53
2022-12-25T09:56:54.437Z,96302.25
2022-12-25T09:59:44.822Z,96306.41
2022-12-25T10:02:51.794Z,96293.03
2022-12-25T10:05:34.599Z,96280.22
2022-12-25T10:08:11.256Z,96276.00
2022-12-25T10:10:50.647Z,96267.22
2022-12-25T10:13:34.706Z,96263.75
2022-12-25T10:16:16.320Z,96258.44
2022-12-25T10:19:26.087Z,96257.25
2022-12-25T10:21:58.831Z,96264.91
2022-12-25T10:24:34.983Z,96262.66
2022-12-25T10:27:08.200Z,96260.47
2022-12-25T10:29:38.465Z,96255.44
2022-12-25T10:32:06.440Z,96251.22
2022-12-25T10:34:34.770Z,96252.50
2022-12-25T10:37:04.076Z,96253.66
2022-12-25T10:39:31.930Z,96261.31
2022-12-25T10:42:22.932Z,96255.28
2022-12-25T10:44:59.531Z,96251.19
2022-12-25T10:47:30.692Z,96258.38
2022-12-25T10:50:00.068Z,96261.25
2022-12-25T10:52:30.229Z,96255.72
2022-12-25T10:54:58.225Z,96258.59
2022-12-25T10:57:27.993Z,96254.97
2022-12-25T10:59:57.594Z,96256.41
2022-12-25T11:02:28.498Z,96243.88
2022-12-25T11:05:03.538Z,96234.22
2022-12-25T11:07:34.028Z,96238.69
2022-12-25T11:10:05.958Z,96230.16
2022-12-25T11:12:37.180Z,96238.28
2022-12-25T11:15:28.064Z,96238.00
2022-12-25T11:17:55.828Z,96232.63
2022-12-25T11:20:24.025Z,96227.69
2022-12-25T11:22:53.432Z,96216.56
2022-12-25T11:25:24.747Z,96211.78
2022-12-25T11:27:58.799Z,96221.50
2022-12-25T11:30:26.714Z,96219.94
2022-12-25T11:32:56.463Z,96223.75
2022-12-25T11:35:31.586Z,96221.19
2022-12-25T11:38:01.021Z,96217.84
2022-12-25T11:40:33.619Z,96207.19
2022-12-25T11:43:23.536Z,96208.16
2022-12-25T11:45:56.788Z,96209.09
2022-12-25T11:48:29.267Z,96203.81
2022-12-25T11:50:59.639Z,96190.78
2022-12-25T11:53:34.876Z,96191.72
2022-12-25T11:56:09.025Z,96191.56
2022-12-25T11:58:41.750Z,96190.59
2022-12-25T12:01:19.710Z,96187.88
2022-12-25T12:03:53.733Z,96188.16
2022-12-25T12:06:29.305Z,96181.13
2022-12-25T12:09:12.281Z,96171.09
2022-12-25T12:11:44.785Z,96164.84
2022-12-25T12:14:32.068Z,96164.78
2022-12-25T12:17:00.973Z,96164.31
2022-12-25T12:19:34.720Z,96168.44
2022-12-25T12:22:05.119Z,96170.84
2022-12-25T12:24:38.676Z,96164.78
2022-12-25T12:27:16.572Z,96162.75
2022-12-25T12:29:50.388Z,96156.84
2022-12-25T12:32:33.218Z,96153.69
2022-12-25T12:35:18.646Z,96149.56
2022-12-25T12:37:56.579Z,96150.22
2022-12-25T12:40:33.040Z,96151.63
2022-12-25T12:43:03.851Z,96147.53
2022-12-25T12:45:38.582Z,96145.75
2022-12-25T12:48:39.844Z,96144.16
2022-12-25T12:51:11.929Z,96150.22
2022-12-25T12:53:42.098Z,96152.16
2022-12-25T12:56:14.250Z,96144.03
2022-12-25T12:58:48.444Z,96133.16
2022-12-25T13:01:55.334Z,96118.31
2022-12-25T13:04:41.667Z,96108.44
2022-12-25T13:07:19.616Z,96096.47
2022-12-25T13:10:02.558Z,96092.66
2022-12-25T13:12:34.348Z,96094.44
2022-12-25T13:15:04.445Z,96096.66
2022-12-25T13:17:33.521Z,96099.84
2022-12-25T13:20:02.286Z,96100.94
2022-12-25T13:22:32.929Z,96101.91
2022-12-25T13:25:05.015Z,96106.53
2022-12-25T13:27:35.282Z,96116.91
2022-12-25T13:30:13.417Z,96120.59
2022-12-25T13:32:42.736Z,96127.44
2022-12-25T13:35:15.158Z,96112.31
2022-12-25T13:37:52.568Z,96114.56
2022-12-25T13:40:33.497Z,96107.56
2022-12-25T13:43:06.908Z,96104.34
2022-12-25T13:45:36.110Z,96098.94
2022-12-25T13:48:20.686Z,96102.94
2022-12-25T13:50:58.905Z,96101.00
2022-12-25T13:53:30.158Z,96106.44
2022-12-25T13:55:59.995Z,96104.84
2022-12-25T13:58:32.090Z,96106.72
2022-12-25T14:01:03.241Z,96105.16
2022-12-25T14:03:41.021Z,96105.47
2022-12-25T14:06:19.861Z,96111.22
2022-12-25T14:08:49.239Z,96112.66
2022-12-25T14:11:22.208Z,96117.28
2022-12-25T14:13:55.208Z,96118.41
2022-12-25T14:16:29.179Z,96116.34
2022-12-25T14:19:20.032Z,96112.84
2022-12-25T14:21:49.377Z,96123.19
2022-12-25T14:24:19.053Z,96115.41
2022-12-25T14:26:46.890Z,96107.59
2022-12-25T14:29:22.479Z,96115.25
2022-12-25T14:31:55.508Z,96117.00
2022-12-25T14:34:25.766Z,96113.38
2022-12-25T14:36:54.805Z,96118.97
2022-12-25T14:39:34.764Z,96114.50
2022-12-25T14:42:13.645Z,96111.66
2022-12-25T14:44:49.783Z,96101.78
2022-12-25T14:47:51.931Z,96111.03
2022-12-25T14:50:28.507Z,96115.00
2022-12-25T14:52:56.927Z,96105.00
2022-12-25T14:55:27.045Z,96107.38
2022-12-25T14:57:58.523Z,96107.72
2022-12-25T15:00:32.673Z,96112.34
2022-12-25T15:03:30.259Z,96116.31
2022-12-25T15:06:01.206Z,96119.59
2022-12-25T15:08:30.495Z,96124.53
2022-12-25T15:11:01.568Z,96134.63
2022-12-25T15:13:30.867Z,96130.66
2022-12-25T15:16:04.568Z,96131.84
2022-12-25T15:18:37.064Z,96144.34
2022-12-25T15:21:04.984Z,96136.53
2022-12-25T15:23:32.760Z,96121.00
2022-12-25T15:26:00.492Z,96128.09
2022-12-25T15:28:28.279Z,96133.44
2022-12-25T15:31:03.611Z,96134.63
2022-12-25T15:33:31.429Z,96127.78
2022-12-25T15:35:59.187Z,96135.84
2022-12-25T15:38:26.936Z,96125.91
2022-12-25T15:40:54.687Z,96127.94
2022-12-25T15:43:40.248Z,96128.38
2022-12-25T15:46:11.277Z,96124.97
2022-12-25T15:48:39.031Z,96114.41
2022-12-25T15:51:06.867Z,96126.09
2022-12-25T15:53:34.638Z,96128.44
2022-12-25T15:56:02.421Z,96126.91
2022-12-25T15:58:30.176Z,96144.28
2022-12-25T16:00:57.943Z,96120.63
2022-12-25T16:03:27.106Z,96145.38
2022-12-25T16:05:54.906Z,96129.72
2022-12-25T16:08:22.899Z,96139.56
2022-12-25T16:10:51.039Z,96146.47
2022-12-25T16:13:18.815Z,96138.41
2022-12-25T16:15:46.649Z,96145.03
2022-12-25T16:18:14.550Z,96141.28
2022-12-25T16:20:43.869Z,96140.19
2022-12-25T16:23:11.725Z,96136.47
2022-12-25T16:25:39.499Z,96140.38
2022-12-25T16:28:10.233Z,96137.66
2022-12-25T16:30:38.867Z,96133.38
2022-12-25T16:33:07.362Z,96130.66
2022-12-25T16:35:35.325Z,96133.19
2022-12-25T16:38:04.596Z,96142.81
2022-12-25T16:40:32.973Z,96136.41
2022-12-25T16:43:01.170Z,96133.59
2022-12-25T16:45:28.984Z,96133.59
2022-12-25T16:47:57.241Z,96130.41
2022-12-25T16:50:25.090Z,96137.78
2022-12-25T16:52:52.824Z,96136.56
2022-12-25T16:55:27.744Z,96133.06
2022-12-25T16:57:58.599Z,96128.84
2022-12-25T17:00:26.823Z,96137.59
2022-12-25T17:02:55.883Z,96134.47
2022-12-25T17:05:24.449Z,96136.75
2022-12-25T17:07:53.273Z,96142.84
2022-12-25T17:10:22.620Z,96134.84
2022-12-25T17:12:50.548Z,96146.75
2022-12-25T17:15:18.553Z,96145.16
2022-12-25T17:18:11.732Z,96150.81
2022-12-25T17:20:39.499Z,96169.91
2022-12-25T17:23:07.418Z,96171.41
2022-12-25T17:25:37.775Z,96164.91
2022-12-25T17:28:06.610Z,96162.47
2022-12-25T17:30:38.231Z,96170.47
2022-12-25T17:33:07.117Z,96180.47
2022-12-25T17:35:38.038Z,96175.31
2022-12-25T17:38:06.842Z,96178.56
2022-12-25T17:40:39.939Z,96175.75
2022-12-25T17:43:07.738Z,96185.69
2022-12-25T17:45:37.395Z,96193.13
2022-12-25T17:48:05.428Z,96186.38
2022-12-25T17:50:39.196Z,96185.44
2022-12-25T17:53:10.056Z,96185.97
2022-12-25T17:55:41.184Z,96199.81
2022-12-25T17:58:10.121Z,96193.34
2022-12-25T18:00:38.484Z,96194.97
2022-12-25T18:03:11.569Z,96192.47
2022-12-25T18:05:42.600Z,96182.75
2022-12-25T18:08:10.305Z,96185.44
2022-12-25T18:10:40.388Z,96171.28
2022-12-25T18:13:08.720Z,96179.66
2022-12-25T18:15:38.140Z,96184.78
2022-12-25T18:18:06.402Z,96185.28
2022-12-25T18:20:39.816Z,96181.81
2022-12-25T18:23:08.214Z,96172.59
2022-12-25T18:25:40.216Z,96189.16
2022-12-25T18:28:09.570Z,96187.03
2022-12-25T18:30:40.147Z,96198.06
2022-12-25T18:33:08.364Z,96200.41
2022-12-25T18:35:42.564Z,96197.44
2022-12-25T18:38:15.723Z,96190.00
2022-12-25T18:40:44.115Z,96200.25
2022-12-25T18:43:13.909Z,96193.56
2022-12-25T18:45:43.473Z,96200.25
2022-12-25T18:48:13.361Z,96203.22
2022-12-25T18:50:41.515Z,96200.81
2022-12-25T18:53:09.337Z,96196.88
2022-12-25T18:55:37.140Z,96197.97
2022-12-25T18:58:04.853Z,96192.53
2022-12-25T19:00:34.021Z,96195.94
2022-12-25T19:03:02.103Z,96198.59
2022-12-25T19:05:30.006Z,96199.66
2022-12-25T19:07:57.777Z,96200.69
2022-12-25T19:10:26.751Z,96196.72
2022-12-25T19:12:54.483Z,96194.81
2022-12-25T19:15:22.200Z,96191.59
2022-12-25T19:17:52.436Z,96191.91
2022-12-25T19:20:20.179Z,96202.88
2022-12-25T19:22:47.962Z,96193.41
2022-12-25T19:25:15.761Z,96193.72
2022-12-25T19:27:43.539Z,96191.59
2022-12-25T19:30:12.728Z,96189.59
2022-12-25T19:32:40.518Z,96182.38
2022-12-25T19:35:10.096Z,96183.69
2022-12-25T19:37:37.851Z,96181.53
2022-12-25T19:40:06.938Z,96179.34
2022-12-25T19:42:34.774Z,96181.53
2022-12-25T19:45:03.080Z,96189.22
2022-12-25T19:47:30.805Z,96185.16
2022-12-25T19:50:02.688Z,96182.41
2022-12-25T19:52:32.655Z,96183.69
2022-12-25T19:55:02.552Z,96194.97
2022-12-25T19:57:31.401Z,96199.25
2022-12-25T19:59:59.157Z,96195.97
2022-12-25T20:02:27.064Z,96189.72
2022-12-25T20:04:54.899Z,96195.84
2022-12-25T20:07:22.617Z,96191.69
2022-12-25T20:09:51.753Z,96197.28
2022-12-25T20:12:19.534Z,96208.25
2022-12-25T20:14:48.048Z,96192.38
2022-12-25T20:17:16.370Z,96202.75
2022-12-25T20:19:44.175Z,96199.66
2022-12-25T20:22:11.960Z,96202.31
2022-12-25T20:24:39.716Z,96193.16
2022-12-25T20:27:08.800Z,96199.00
2022-12-25T20:29:36.556Z,96203.50
2022-12-25T20:32:04.907Z,96208.31
2022-12-25T20:34:32.726Z,96211.81
2022-12-25T20:37:00.494Z,96222.06
2022-12-25T20:39:28.380Z,96218.56
2022-12-25T20:41:57.211Z,96219.44
2022-12-25T20:44:26.370Z,96229.13
2022-12-25T20:46:54.866Z,96227.66
2022-12-25T20:49:22.670Z,96228.03
2022-12-25T20:51:53.527Z,96229.47
2022-12-25T20:54:21.236Z,96245.59
2022-12-25T20:56:49.917Z,96245.31
2022-12-25T20:59:17.613Z,96239.72
2022-12-25T21:01:47.667Z,96238.63
2022-12-25T21:04:16.674Z,96245.09
2022-12-25T21:06:44.636Z,96249.94
2022-12-25T21:09:12.375Z,96247.34
2022-12-25T21:11:40.669Z,96255.38
2022-12-25T21:14:08.989Z,96257.91
2022-12-25T21:16:39.962Z,96263.66
2022-12-25T21:19:09.138Z,96262.63
2022-12-25T21:21:39.108Z,96267.28
2022-12-25T21:24:08.260Z,96265.69
2022-12-25T21:26:36.011Z,96258.97
2022-12-25T21:29:04.472Z,96264.41
2022-12-25T21:31:53.170Z,96269.00
2022-12-25T21:34:21.500Z,96269.31
2022-12-25T21:36:49.647Z,96273.69
2022-12-25T21:39:17.474Z,96279.63
2022-12-25T21:41:45.242Z,96277.22
2022-12-25T21:44:14.084Z,96283.41
2022-12-25T21:46:41.955Z,96285.56
2022-12-25T21:49:10.227Z,96288.25
2022-12-25T21:51:57.150Z,96294.19
2022-12-25T21:54:24.894Z,96303.31
2022-12-25T21:56:52.675Z,96303.84
2022-12-25T21:59:28.851Z,96304.41
2022-12-25T22:01:56.710Z,96303.66
2022-12-25T22:04:24.605Z,96317.97
2022-12-25T22:07:11.543Z,96308.38
2022-12-25T22:09:39.289Z,96307.84
2022-12-25T22:12:31.883Z,96308.44
2022-12-25T22:15:06.041Z,96314.19
2022-12-25T22:17:52.659Z,96314.47
2022-12-25T22:20:23.789Z,96312.28
2022-12-25T22:22:53.079Z,96313.94
2022-12-25T22:25:21.623Z,96322.78
2022-12-25T22:27:50.554Z,96313.19
2022-12-25T22:30:20.731Z,96316.91
2022-12-25T22:32:48.707Z,96308.56
2022-12-25T22:35:17.826Z,96303.44
2022-12-25T22:37:46.278Z,96307.22
2022-12-25T22:40:17.332Z,96308.53
2022-12-25T22:42:45.156Z,96308.53
2022-12-25T22:45:13.345Z,96304.72
2022-12-25T22:47:41.537Z,96304.72
2022-12-25T22:50:10.539Z,96306.59
2022-12-25T22:52:47.070Z,96309.53
2022-12-25T22:55:20.027Z,96306.00
2022-12-25T22:57:48.900Z,96304.66
2022-12-25T23:00:16.815Z,96299.56
2022-12-25T23:02:44.740Z,96303.31
2022-12-25T23:05:12.536Z,96302.06
2022-12-25T23:07:40.443Z,96309.06
2022-12-25T23:10:09.272Z,96302.41
2022-12-25T23:12:55.759Z,96306.72
2022-12-25T23:15:23.614Z,96304.88
2022-12-25T23:18:13.002Z,96310.78
2022-12-25T23:21:09.591Z,96307.06
2022-12-25T23:23:55.195Z,96301.69
2022-12-25T23:26:22.902Z,96296.38
2022-12-25T23:29:09.387Z,96300.69
2022-12-25T23:31:40.479Z,96314.66
2022-12-25T23:34:09.437Z,96314.22
2022-12-25T23:36:37.627Z,96307.53
2022-12-25T23:39:10.018Z,96313.16
2022-12-25T23:41:39.018Z,96309.38
2022-12-25T23:44:08.656Z,96309.41
2022-12-25T23:46:36.914Z,96317.94
2022-12-25T23:49:05.089Z,96310.94
2022-12-25T23:51:33.355Z,96316.34
2022-12-25T23:54:01.093Z,96319.81
2022-12-25T23:56:28.938Z,96313.38
2022-12-25T23:58:56.703Z,96315.81
